sensor_id;sensor_type;location;lat;lon;timestamp;temperature;humidity
14144;DHT22;7152;48.348;10.980;2023-07-29T00:02:17;16.20;99.90
14144;DHT22;7152;48.348;10.980;2023-07-29T00:04:43;16.20;99.90
14144;DHT22;7152;48.348;10.980;2023-07-29T00:07:10;16.20;99.90
14144;DHT22;7152;48.348;10.980;2023-07-29T00:09:36;16.10;99.90
14144;DHT22;7152;48.348;10.980;2023-07-29T00:12:04;16.10;99.90
14144;DHT22;7152;48.348;10.980;2023-07-29T00:14:29;16.10;99.90
14144;DHT22;7152;48.348;10.980;2023-07-29T00:16:55;16.10;99.90
14144;DHT22;7152;48.348;10.980;2023-07-29T00:19:21;16.10;99.90
14144;DHT22;7152;48.348;10.980;2023-07-29T00:21:49;16.10;99.90
14144;DHT22;7152;48.348;10.980;2023-07-29T00:24:15;16.10;99.90
14144;DHT22;7152;48.348;10.980;2023-07-29T00:26:40;16.10;99.90
14144;DHT22;7152;48.348;10.980;2023-07-29T00:29:06;16.10;99.90
14144;DHT22;7152;48.348;10.980;2023-07-29T00:31:32;16.10;99.90
14144;DHT22;7152;48.348;10.980;2023-07-29T00:33:58;16.00;99.90
14144;DHT22;7152;48.348;10.980;2023-07-29T00:36:24;16.00;99.90
14144;DHT22;7152;48.348;10.980;2023-07-29T00:38:50;16.00;99.90
14144;DHT22;7152;48.348;10.980;2023-07-29T00:41:18;15.90;99.90
14144;DHT22;7152;48.348;10.980;2023-07-29T00:43:45;15.90;99.90
14144;DHT22;7152;48.348;10.980;2023-07-29T00:46:11;15.90;99.90
14144;DHT22;7152;48.348;10.980;2023-07-29T00:48:38;15.90;99.90
14144;DHT22;7152;48.348;10.980;2023-07-29T00:51:04;15.90;99.90
14144;DHT22;7152;48.348;10.980;2023-07-29T00:53:31;15.80;99.90
14144;DHT22;7152;48.348;10.980;2023-07-29T00:55:57;15.80;99.90
14144;DHT22;7152;48.348;10.980;2023-07-29T00:58:23;15.80;99.90
14144;DHT22;7152;48.348;10.980;2023-07-29T01:00:48;15.80;99.90
14144;DHT22;7152;48.348;10.980;2023-07-29T01:03:15;15.70;99.90
14144;DHT22;7152;48.348;10.980;2023-07-29T01:06:07;15.70;99.90
14144;DHT22;7152;48.348;10.980;2023-07-29T01:11:22;15.70;99.90
14144;DHT22;7152;48.348;10.980;2023-07-29T01:14:02;15.70;99.90
14144;DHT22;7152;48.348;10.980;2023-07-29T01:16:45;15.70;99.90
14144;DHT22;7152;48.348;10.980;2023-07-29T01:21:52;15.60;99.90
14144;DHT22;7152;48.348;10.980;2023-07-29T01:24:18;15.60;99.90
14144;DHT22;7152;48.348;10.980;2023-07-29T01:26:43;15.60;99.90
14144;DHT22;7152;48.348;10.980;2023-07-29T01:29:09;15.60;99.90
14144;DHT22;7152;48.348;10.980;2023-07-29T01:31:43;15.60;99.90
14144;DHT22;7152;48.348;10.980;2023-07-29T01:36:42;15.60;99.90
14144;DHT22;7152;48.348;10.980;2023-07-29T01:39:09;15.60;99.90
14144;DHT22;7152;48.348;10.980;2023-07-29T01:41:39;15.50;99.90
14144;DHT22;7152;48.348;10.980;2023-07-29T01:44:07;15.50;99.90
14144;DHT22;7152;48.348;10.980;2023-07-29T01:46:34;15.50;99.90
14144;DHT22;7152;48.348;10.980;2023-07-29T01:49:00;15.50;99.90
14144;DHT22;7152;48.348;10.980;2023-07-29T01:51:26;15.40;99.90
14144;DHT22;7152;48.348;10.980;2023-07-29T01:53:51;15.40;99.90
14144;DHT22;7152;48.348;10.980;2023-07-29T01:56:17;15.40;99.90
14144;DHT22;7152;48.348;10.980;2023-07-29T01:58:51;15.40;99.90
14144;DHT22;7152;48.348;10.980;2023-07-29T02:01:17;15.40;99.90
14144;DHT22;7152;48.348;10.980;2023-07-29T02:03:43;15.40;99.90
14144;DHT22;7152;48.348;10.980;2023-07-29T02:06:09;15.40;99.90
14144;DHT22;7152;48.348;10.980;2023-07-29T02:08:35;15.40;99.90
14144;DHT22;7152;48.348;10.980;2023-07-29T02:11:01;15.40;99.90
14144;DHT22;7152;48.348;10.980;2023-07-29T02:13:27;15.40;99.90
14144;DHT22;7152;48.348;10.980;2023-07-29T02:15:52;15.40;99.90
14144;DHT22;7152;48.348;10.980;2023-07-29T02:18:18;15.40;99.90
14144;DHT22;7152;48.348;10.980;2023-07-29T02:20:44;15.50;99.90
14144;DHT22;7152;48.348;10.980;2023-07-29T02:23:15;15.50;99.90
14144;DHT22;7152;48.348;10.980;2023-07-29T02:25:44;15.60;99.90
14144;DHT22;7152;48.348;10.980;2023-07-29T02:28:10;15.60;99.90
14144;DHT22;7152;48.348;10.980;2023-07-29T02:30:40;15.70;99.90
14144;DHT22;7152;48.348;10.980;2023-07-29T02:33:06;15.70;99.90
14144;DHT22;7152;48.348;10.980;2023-07-29T02:35:32;15.70;99.90
14144;DHT22;7152;48.348;10.980;2023-07-29T02:37:58;15.70;99.90
14144;DHT22;7152;48.348;10.980;2023-07-29T02:40:24;15.80;99.90
14144;DHT22;7152;48.348;10.980;2023-07-29T02:42:52;15.80;99.90
14144;DHT22;7152;48.348;10.980;2023-07-29T02:45:18;15.80;99.90
14144;DHT22;7152;48.348;10.980;2023-07-29T02:47:44;15.80;99.90
14144;DHT22;7152;48.348;10.980;2023-07-29T02:50:10;15.80;99.90
14144;DHT22;7152;48.348;10.980;2023-07-29T02:52:36;15.80;99.90
14144;DHT22;7152;48.348;10.980;2023-07-29T02:55:01;15.80;99.90
14144;DHT22;7152;48.348;10.980;2023-07-29T02:57:27;15.80;99.90
14144;DHT22;7152;48.348;10.980;2023-07-29T02:59:53;15.80;99.90
14144;DHT22;7152;48.348;10.980;2023-07-29T03:02:19;15.80;99.90
14144;DHT22;7152;48.348;10.980;2023-07-29T03:04:45;15.80;99.90
14144;DHT22;7152;48.348;10.980;2023-07-29T03:07:11;15.80;99.90
14144;DHT22;7152;48.348;10.980;2023-07-29T03:09:37;15.80;99.90
14144;DHT22;7152;48.348;10.980;2023-07-29T03:12:03;15.80;99.90
14144;DHT22;7152;48.348;10.980;2023-07-29T03:14:29;15.80;99.90
14144;DHT22;7152;48.348;10.980;2023-07-29T03:16:54;15.80;99.90
14144;DHT22;7152;48.348;10.980;2023-07-29T03:19:20;15.80;99.90
14144;DHT22;7152;48.348;10.980;2023-07-29T03:21:47;15.70;99.90
14144;DHT22;7152;48.348;10.980;2023-07-29T03:24:13;15.70;99.90
14144;DHT22;7152;48.348;10.980;2023-07-29T03:26:39;15.70;99.90
14144;DHT22;7152;48.348;10.980;2023-07-29T03:29:05;15.70;99.90
14144;DHT22;7152;48.348;10.980;2023-07-29T03:31:30;15.70;99.90
14144;DHT22;7152;48.348;10.980;2023-07-29T03:33:56;15.70;99.90
14144;DHT22;7152;48.348;10.980;2023-07-29T03:36:22;15.70;99.90
14144;DHT22;7152;48.348;10.980;2023-07-29T03:38:51;15.60;99.90
14144;DHT22;7152;48.348;10.980;2023-07-29T03:41:17;15.60;99.90
14144;DHT22;7152;48.348;10.980;2023-07-29T03:43:42;15.60;99.90
14144;DHT22;7152;48.348;10.980;2023-07-29T03:46:08;15.60;99.90
14144;DHT22;7152;48.348;10.980;2023-07-29T03:48:34;15.60;99.90
14144;DHT22;7152;48.348;10.980;2023-07-29T03:51:00;15.60;99.90
14144;DHT22;7152;48.348;10.980;2023-07-29T03:53:26;15.50;99.90
14144;DHT22;7152;48.348;10.980;2023-07-29T03:55:52;15.50;99.90
14144;DHT22;7152;48.348;10.980;2023-07-29T03:58:18;15.50;99.90
14144;DHT22;7152;48.348;10.980;2023-07-29T04:00:44;15.50;99.90
14144;DHT22;7152;48.348;10.980;2023-07-29T04:03:10;15.50;99.90
14144;DHT22;7152;48.348;10.980;2023-07-29T04:05:36;15.50;99.90
14144;DHT22;7152;48.348;10.980;2023-07-29T04:08:02;15.40;99.90
14144;DHT22;7152;48.348;10.980;2023-07-29T04:10:28;15.40;99.90
14144;DHT22;7152;48.348;10.980;2023-07-29T04:12:57;15.50;99.90
14144;DHT22;7152;48.348;10.980;2023-07-29T04:15:23;15.50;99.90
14144;DHT22;7152;48.348;10.980;2023-07-29T04:17:48;15.50;99.90
14144;DHT22;7152;48.348;10.980;2023-07-29T04:20:14;15.50;99.90
14144;DHT22;7152;48.348;10.980;2023-07-29T04:22:40;15.50;99.90
14144;DHT22;7152;48.348;10.980;2023-07-29T04:25:06;15.50;99.90
14144;DHT22;7152;48.348;10.980;2023-07-29T04:27:32;15.60;99.90
14144;DHT22;7152;48.348;10.980;2023-07-29T04:29:58;15.60;99.90
14144;DHT22;7152;48.348;10.980;2023-07-29T04:32:24;15.70;99.90
14144;DHT22;7152;48.348;10.980;2023-07-29T04:34:50;15.70;99.90
14144;DHT22;7152;48.348;10.980;2023-07-29T04:37:15;15.80;99.90
14144;DHT22;7152;48.348;10.980;2023-07-29T04:39:41;15.80;99.90
14144;DHT22;7152;48.348;10.980;2023-07-29T04:42:07;15.80;99.90
14144;DHT22;7152;48.348;10.980;2023-07-29T04:44:34;15.90;99.90
14144;DHT22;7152;48.348;10.980;2023-07-29T04:47:01;15.90;99.90
14144;DHT22;7152;48.348;10.980;2023-07-29T04:49:27;16.00;99.90
14144;DHT22;7152;48.348;10.980;2023-07-29T04:51:53;16.00;99.90
14144;DHT22;7152;48.348;10.980;2023-07-29T04:54:19;16.10;99.90
14144;DHT22;7152;48.348;10.980;2023-07-29T04:56:46;16.20;99.90
14144;DHT22;7152;48.348;10.980;2023-07-29T04:59:12;16.30;99.90
14144;DHT22;7152;48.348;10.980;2023-07-29T05:01:38;16.30;99.90
14144;DHT22;7152;48.348;10.980;2023-07-29T05:04:04;16.40;99.90
14144;DHT22;7152;48.348;10.980;2023-07-29T05:06:30;16.40;99.90
14144;DHT22;7152;48.348;10.980;2023-07-29T05:08:57;16.50;99.90
14144;DHT22;7152;48.348;10.980;2023-07-29T05:11:23;16.60;99.90
14144;DHT22;7152;48.348;10.980;2023-07-29T05:13:51;16.70;99.90
14144;DHT22;7152;48.348;10.980;2023-07-29T05:16:16;16.80;99.90
14144;DHT22;7152;48.348;10.980;2023-07-29T05:18:42;16.80;99.90
14144;DHT22;7152;48.348;10.980;2023-07-29T05:21:08;16.90;99.90
14144;DHT22;7152;48.348;10.980;2023-07-29T05:23:34;16.90;99.90
14144;DHT22;7152;48.348;10.980;2023-07-29T05:26:00;16.90;99.90
14144;DHT22;7152;48.348;10.980;2023-07-29T05:28:25;16.90;99.90
14144;DHT22;7152;48.348;10.980;2023-07-29T05:30:52;17.00;99.90
14144;DHT22;7152;48.348;10.980;2023-07-29T05:33:18;17.00;99.90
14144;DHT22;7152;48.348;10.980;2023-07-29T05:35:44;17.00;99.90
14144;DHT22;7152;48.348;10.980;2023-07-29T05:38:12;17.10;99.90
14144;DHT22;7152;48.348;10.980;2023-07-29T05:40:38;17.10;99.90
14144;DHT22;7152;48.348;10.980;2023-07-29T05:43:04;17.20;99.90
14144;DHT22;7152;48.348;10.980;2023-07-29T05:45:30;17.40;99.90
14144;DHT22;7152;48.348;10.980;2023-07-29T05:47:56;17.50;99.90
14144;DHT22;7152;48.348;10.980;2023-07-29T05:50:22;17.60;99.90
14144;DHT22;7152;48.348;10.980;2023-07-29T05:52:48;17.60;99.90
14144;DHT22;7152;48.348;10.980;2023-07-29T05:55:14;17.70;99.90
14144;DHT22;7152;48.348;10.980;2023-07-29T05:57:40;17.70;99.90
14144;DHT22;7152;48.348;10.980;2023-07-29T06:00:08;17.70;99.90
14144;DHT22;7152;48.348;10.980;2023-07-29T06:02:39;17.80;99.90
14144;DHT22;7152;48.348;10.980;2023-07-29T06:05:11;17.90;99.90
14144;DHT22;7152;48.348;10.980;2023-07-29T06:07:36;18.00;99.90
14144;DHT22;7152;48.348;10.980;2023-07-29T06:10:03;18.20;99.90
14144;DHT22;7152;48.348;10.980;2023-07-29T06:12:29;18.30;99.90
14144;DHT22;7152;48.348;10.980;2023-07-29T06:14:55;18.40;99.90
14144;DHT22;7152;48.348;10.980;2023-07-29T06:17:21;18.40;99.90
14144;DHT22;7152;48.348;10.980;2023-07-29T06:19:47;18.40;99.90
14144;DHT22;7152;48.348;10.980;2023-07-29T06:22:13;18.30;99.90
14144;DHT22;7152;48.348;10.980;2023-07-29T06:24:38;18.30;99.90
14144;DHT22;7152;48.348;10.980;2023-07-29T06:27:04;18.20;99.90
14144;DHT22;7152;48.348;10.980;2023-07-29T06:29:30;18.10;99.90
14144;DHT22;7152;48.348;10.980;2023-07-29T06:31:58;18.10;99.90
14144;DHT22;7152;48.348;10.980;2023-07-29T06:34:24;18.10;99.90
14144;DHT22;7152;48.348;10.980;2023-07-29T06:36:49;18.10;99.90
14144;DHT22;7152;48.348;10.980;2023-07-29T06:39:15;18.10;99.90
14144;DHT22;7152;48.348;10.980;2023-07-29T06:41:41;18.00;99.90
14144;DHT22;7152;48.348;10.980;2023-07-29T06:44:07;18.00;99.90
14144;DHT22;7152;48.348;10.980;2023-07-29T06:46:33;17.90;99.90
14144;DHT22;7152;48.348;10.980;2023-07-29T06:48:59;17.80;99.90
14144;DHT22;7152;48.348;10.980;2023-07-29T06:51:25;17.90;99.90
14144;DHT22;7152;48.348;10.980;2023-07-29T06:53:51;17.80;99.90
14144;DHT22;7152;48.348;10.980;2023-07-29T06:56:16;17.80;99.90
14144;DHT22;7152;48.348;10.980;2023-07-29T06:58:42;17.80;99.90
14144;DHT22;7152;48.348;10.980;2023-07-29T07:01:08;17.90;99.90
14144;DHT22;7152;48.348;10.980;2023-07-29T07:03:34;17.80;99.90
14144;DHT22;7152;48.348;10.980;2023-07-29T07:06:00;18.00;99.90
14144;DHT22;7152;48.348;10.980;2023-07-29T07:08:25;18.10;99.90
14144;DHT22;7152;48.348;10.980;2023-07-29T07:10:51;18.20;99.90
14144;DHT22;7152;48.348;10.980;2023-07-29T07:13:17;18.30;99.90
14144;DHT22;7152;48.348;10.980;2023-07-29T07:15:43;18.40;99.90
14144;DHT22;7152;48.348;10.980;2023-07-29T07:18:09;18.40;99.90
14144;DHT22;7152;48.348;10.980;2023-07-29T07:20:35;18.50;99.90
14144;DHT22;7152;48.348;10.980;2023-07-29T07:23:01;18.60;99.90
14144;DHT22;7152;48.348;10.980;2023-07-29T07:25:26;18.80;99.90
14144;DHT22;7152;48.348;10.980;2023-07-29T07:27:52;18.90;99.90
14144;DHT22;7152;48.348;10.980;2023-07-29T07:30:18;19.10;99.90
14144;DHT22;7152;48.348;10.980;2023-07-29T07:32:44;19.20;99.90
14144;DHT22;7152;48.348;10.980;2023-07-29T07:35:10;19.40;99.90
14144;DHT22;7152;48.348;10.980;2023-07-29T07:37:36;19.50;99.90
14144;DHT22;7152;48.348;10.980;2023-07-29T07:40:02;19.60;99.90
14144;DHT22;7152;48.348;10.980;2023-07-29T07:42:28;19.70;99.90
14144;DHT22;7152;48.348;10.980;2023-07-29T07:44:54;19.90;99.90
14144;DHT22;7152;48.348;10.980;2023-07-29T07:47:19;19.90;99.90
14144;DHT22;7152;48.348;10.980;2023-07-29T07:49:45;20.00;99.90
14144;DHT22;7152;48.348;10.980;2023-07-29T07:52:11;20.10;99.90
14144;DHT22;7152;48.348;10.980;2023-07-29T07:54:37;20.20;99.90
14144;DHT22;7152;48.348;10.980;2023-07-29T07:57:03;20.30;99.90
14144;DHT22;7152;48.348;10.980;2023-07-29T07:59:29;20.20;99.90
14144;DHT22;7152;48.348;10.980;2023-07-29T08:01:55;20.30;99.90
14144;DHT22;7152;48.348;10.980;2023-07-29T08:04:20;20.30;99.90
14144;DHT22;7152;48.348;10.980;2023-07-29T08:06:46;20.20;99.90
14144;DHT22;7152;48.348;10.980;2023-07-29T08:09:12;20.20;99.90
14144;DHT22;7152;48.348;10.980;2023-07-29T08:11:38;20.30;99.90
14144;DHT22;7152;48.348;10.980;2023-07-29T08:14:04;20.30;99.90
14144;DHT22;7152;48.348;10.980;2023-07-29T08:16:30;20.40;99.90
14144;DHT22;7152;48.348;10.980;2023-07-29T08:18:55;20.50;99.90
14144;DHT22;7152;48.348;10.980;2023-07-29T08:21:21;20.60;99.90
14144;DHT22;7152;48.348;10.980;2023-07-29T08:23:47;20.70;99.90
14144;DHT22;7152;48.348;10.980;2023-07-29T08:26:13;20.80;99.90
14144;DHT22;7152;48.348;10.980;2023-07-29T08:28:39;20.90;99.90
14144;DHT22;7152;48.348;10.980;2023-07-29T08:31:06;20.90;99.90
14144;DHT22;7152;48.348;10.980;2023-07-29T08:33:32;20.80;99.90
14144;DHT22;7152;48.348;10.980;2023-07-29T08:35:59;20.80;99.90
14144;DHT22;7152;48.348;10.980;2023-07-29T08:38:25;20.90;99.90
14144;DHT22;7152;48.348;10.980;2023-07-29T08:41:19;20.90;99.90
14144;DHT22;7152;48.348;10.980;2023-07-29T08:44:02;21.20;99.90
14144;DHT22;7152;48.348;10.980;2023-07-29T08:46:32;21.20;99.90
14144;DHT22;7152;48.348;10.980;2023-07-29T08:48:59;21.30;99.90
14144;DHT22;7152;48.348;10.980;2023-07-29T08:51:27;21.40;99.90
14144;DHT22;7152;48.348;10.980;2023-07-29T08:53:53;21.60;99.90
14144;DHT22;7152;48.348;10.980;2023-07-29T08:56:19;21.80;99.90
14144;DHT22;7152;48.348;10.980;2023-07-29T08:58:45;21.90;99.90
14144;DHT22;7152;48.348;10.980;2023-07-29T09:01:12;22.10;99.90
14144;DHT22;7152;48.348;10.980;2023-07-29T09:03:37;22.30;99.90
14144;DHT22;7152;48.348;10.980;2023-07-29T09:06:03;22.30;99.90
14144;DHT22;7152;48.348;10.980;2023-07-29T09:08:29;22.30;99.90
14144;DHT22;7152;48.348;10.980;2023-07-29T09:10:55;22.40;99.90
14144;DHT22;7152;48.348;10.980;2023-07-29T09:13:21;22.50;99.90
14144;DHT22;7152;48.348;10.980;2023-07-29T09:15:48;22.70;99.90
14144;DHT22;7152;48.348;10.980;2023-07-29T09:18:19;22.90;99.90
14144;DHT22;7152;48.348;10.980;2023-07-29T09:20:49;23.20;99.90
14144;DHT22;7152;48.348;10.980;2023-07-29T09:23:15;23.30;99.90
14144;DHT22;7152;48.348;10.980;2023-07-29T09:25:41;23.30;99.90
14144;DHT22;7152;48.348;10.980;2023-07-29T09:28:15;23.30;99.90
14144;DHT22;7152;48.348;10.980;2023-07-29T09:30:44;23.30;99.90
14144;DHT22;7152;48.348;10.980;2023-07-29T09:33:10;23.30;99.90
14144;DHT22;7152;48.348;10.980;2023-07-29T09:35:37;23.30;99.90
14144;DHT22;7152;48.348;10.980;2023-07-29T09:38:05;23.60;99.90
14144;DHT22;7152;48.348;10.980;2023-07-29T09:40:35;24.00;99.90
14144;DHT22;7152;48.348;10.980;2023-07-29T09:43:01;24.40;99.90
14144;DHT22;7152;48.348;10.980;2023-07-29T09:45:27;24.80;99.90
14144;DHT22;7152;48.348;10.980;2023-07-29T09:47:54;25.10;99.90
14144;DHT22;7152;48.348;10.980;2023-07-29T09:50:26;25.20;99.90
14144;DHT22;7152;48.348;10.980;2023-07-29T09:52:53;24.80;99.90
14144;DHT22;7152;48.348;10.980;2023-07-29T09:55:21;24.50;99.90
14144;DHT22;7152;48.348;10.980;2023-07-29T09:57:47;24.30;99.90
14144;DHT22;7152;48.348;10.980;2023-07-29T10:00:14;24.30;99.90
14144;DHT22;7152;48.348;10.980;2023-07-29T10:02:43;24.20;99.90
14144;DHT22;7152;48.348;10.980;2023-07-29T10:05:10;24.00;99.90
14144;DHT22;7152;48.348;10.980;2023-07-29T10:07:39;23.80;99.90
14144;DHT22;7152;48.348;10.980;2023-07-29T10:10:07;23.70;99.90
14144;DHT22;7152;48.348;10.980;2023-07-29T10:12:34;23.10;99.90
14144;DHT22;7152;48.348;10.980;2023-07-29T10:15:02;22.50;99.90
14144;DHT22;7152;48.348;10.980;2023-07-29T10:17:30;22.00;99.90
14144;DHT22;7152;48.348;10.980;2023-07-29T10:19:56;21.30;99.90
14144;DHT22;7152;48.348;10.980;2023-07-29T10:22:28;20.80;99.90
14144;DHT22;7152;48.348;10.980;2023-07-29T10:25:02;20.20;99.90
14144;DHT22;7152;48.348;10.980;2023-07-29T10:27:28;19.50;99.90
14144;DHT22;7152;48.348;10.980;2023-07-29T10:29:55;18.90;99.90
14144;DHT22;7152;48.348;10.980;2023-07-29T10:32:25;18.60;99.90
14144;DHT22;7152;48.348;10.980;2023-07-29T10:34:52;18.40;99.90
14144;DHT22;7152;48.348;10.980;2023-07-29T10:37:18;18.20;99.90
14144;DHT22;7152;48.348;10.980;2023-07-29T10:39:55;18.20;99.90
14144;DHT22;7152;48.348;10.980;2023-07-29T10:42:21;18.20;99.90
14144;DHT22;7152;48.348;10.980;2023-07-29T10:44:51;18.30;99.90
14144;DHT22;7152;48.348;10.980;2023-07-29T10:49:49;18.40;99.90
14144;DHT22;7152;48.348;10.980;2023-07-29T10:52:17;18.60;99.90
14144;DHT22;7152;48.348;10.980;2023-07-29T10:54:53;18.80;99.90
14144;DHT22;7152;48.348;10.980;2023-07-29T10:57:35;19.00;99.90
14144;DHT22;7152;48.348;10.980;2023-07-29T11:00:03;19.20;99.90
14144;DHT22;7152;48.348;10.980;2023-07-29T11:02:32;19.30;99.90
14144;DHT22;7152;48.348;10.980;2023-07-29T11:04:59;19.80;99.90
14144;DHT22;7152;48.348;10.980;2023-07-29T11:07:26;20.10;99.90
14144;DHT22;7152;48.348;10.980;2023-07-29T11:09:55;20.60;99.90
14144;DHT22;7152;48.348;10.980;2023-07-29T11:12:34;21.20;99.90
14144;DHT22;7152;48.348;10.980;2023-07-29T11:17:34;22.40;99.90
14144;DHT22;7152;48.348;10.980;2023-07-29T11:20:02;22.90;99.90
14144;DHT22;7152;48.348;10.980;2023-07-29T11:22:29;23.30;99.90
14144;DHT22;7152;48.348;10.980;2023-07-29T11:24:55;23.60;99.90
14144;DHT22;7152;48.348;10.980;2023-07-29T11:27:21;24.30;99.90
14144;DHT22;7152;48.348;10.980;2023-07-29T11:29:47;24.90;99.90
14144;DHT22;7152;48.348;10.980;2023-07-29T11:32:14;25.00;99.90
14144;DHT22;7152;48.348;10.980;2023-07-29T11:34:41;24.80;99.90
14144;DHT22;7152;48.348;10.980;2023-07-29T11:37:10;24.30;99.90
14144;DHT22;7152;48.348;10.980;2023-07-29T11:39:40;23.70;99.90
14144;DHT22;7152;48.348;10.980;2023-07-29T11:42:10;23.10;99.90
14144;DHT22;7152;48.348;10.980;2023-07-29T11:44:36;22.70;99.90
14144;DHT22;7152;48.348;10.980;2023-07-29T11:47:05;22.40;99.90
14144;DHT22;7152;48.348;10.980;2023-07-29T11:49:33;22.10;99.90
14144;DHT22;7152;48.348;10.980;2023-07-29T11:51:58;22.00;99.90
14144;DHT22;7152;48.348;10.980;2023-07-29T11:54:25;21.90;99.90
14144;DHT22;7152;48.348;10.980;2023-07-29T11:56:51;21.80;99.90
14144;DHT22;7152;48.348;10.980;2023-07-29T11:59:17;21.70;99.90
14144;DHT22;7152;48.348;10.980;2023-07-29T12:01:43;21.60;99.90
14144;DHT22;7152;48.348;10.980;2023-07-29T12:04:09;21.50;99.90
14144;DHT22;7152;48.348;10.980;2023-07-29T12:06:35;21.40;99.90
14144;DHT22;7152;48.348;10.980;2023-07-29T12:09:01;21.40;99.90
14144;DHT22;7152;48.348;10.980;2023-07-29T12:11:27;21.30;99.90
14144;DHT22;7152;48.348;10.980;2023-07-29T12:13:54;22.30;99.90
14144;DHT22;7152;48.348;10.980;2023-07-29T12:16:20;22.90;99.90
14144;DHT22;7152;48.348;10.980;2023-07-29T12:18:45;24.30;99.90
14144;DHT22;7152;48.348;10.980;2023-07-29T12:21:14;24.80;99.90
14144;DHT22;7152;48.348;10.980;2023-07-29T12:23:40;24.70;99.90
14144;DHT22;7152;48.348;10.980;2023-07-29T12:26:06;24.40;99.90
14144;DHT22;7152;48.348;10.980;2023-07-29T12:28:32;24.20;99.90
14144;DHT22;7152;48.348;10.980;2023-07-29T12:30:58;24.20;99.90
14144;DHT22;7152;48.348;10.980;2023-07-29T12:33:37;24.80;99.90
14144;DHT22;7152;48.348;10.980;2023-07-29T12:36:07;25.80;99.90
14144;DHT22;7152;48.348;10.980;2023-07-29T12:38:36;26.10;99.90
14144;DHT22;7152;48.348;10.980;2023-07-29T12:41:03;25.80;99.90
14144;DHT22;7152;48.348;10.980;2023-07-29T12:43:29;25.60;99.90
14144;DHT22;7152;48.348;10.980;2023-07-29T12:45:57;25.60;99.90
14144;DHT22;7152;48.348;10.980;2023-07-29T12:48:23;25.70;99.90
14144;DHT22;7152;48.348;10.980;2023-07-29T12:50:48;25.70;99.90
14144;DHT22;7152;48.348;10.980;2023-07-29T12:53:14;25.80;99.90
14144;DHT22;7152;48.348;10.980;2023-07-29T12:55:40;26.60;99.90
14144;DHT22;7152;48.348;10.980;2023-07-29T12:58:06;26.90;99.90
14144;DHT22;7152;48.348;10.980;2023-07-29T13:00:32;27.20;99.90
14144;DHT22;7152;48.348;10.980;2023-07-29T13:02:58;27.10;99.90
14144;DHT22;7152;48.348;10.980;2023-07-29T13:05:24;27.00;99.90
14144;DHT22;7152;48.348;10.980;2023-07-29T13:07:49;26.80;99.90
14144;DHT22;7152;48.348;10.980;2023-07-29T13:10:16;26.80;99.90
14144;DHT22;7152;48.348;10.980;2023-07-29T13:12:41;26.70;99.90
14144;DHT22;7152;48.348;10.980;2023-07-29T13:15:07;26.90;99.90
14144;DHT22;7152;48.348;10.980;2023-07-29T13:17:34;27.70;99.90
14144;DHT22;7152;48.348;10.980;2023-07-29T13:20:00;28.30;99.90
14144;DHT22;7152;48.348;10.980;2023-07-29T13:22:25;29.00;99.90
14144;DHT22;7152;48.348;10.980;2023-07-29T13:24:51;29.70;99.90
14144;DHT22;7152;48.348;10.980;2023-07-29T13:27:17;29.80;99.90
14144;DHT22;7152;48.348;10.980;2023-07-29T13:29:43;29.90;99.90
14144;DHT22;7152;48.348;10.980;2023-07-29T13:32:09;29.70;99.90
14144;DHT22;7152;48.348;10.980;2023-07-29T13:34:35;29.50;99.90
14144;DHT22;7152;48.348;10.980;2023-07-29T13:37:01;29.60;99.90
14144;DHT22;7152;48.348;10.980;2023-07-29T13:39:27;29.70;99.90
14144;DHT22;7152;48.348;10.980;2023-07-29T13:41:54;30.00;99.90
14144;DHT22;7152;48.348;10.980;2023-07-29T13:44:20;30.20;99.90
14144;DHT22;7152;48.348;10.980;2023-07-29T13:46:46;30.20;99.90
14144;DHT22;7152;48.348;10.980;2023-07-29T13:49:11;30.30;99.90
14144;DHT22;7152;48.348;10.980;2023-07-29T13:51:37;30.40;99.90
14144;DHT22;7152;48.348;10.980;2023-07-29T13:54:03;30.40;99.90
14144;DHT22;7152;48.348;10.980;2023-07-29T13:56:29;30.40;99.90
14144;DHT22;7152;48.348;10.980;2023-07-29T13:58:55;30.70;99.90
14144;DHT22;7152;48.348;10.980;2023-07-29T14:01:20;30.80;99.90
14144;DHT22;7152;48.348;10.980;2023-07-29T14:03:46;30.90;99.90
14144;DHT22;7152;48.348;10.980;2023-07-29T14:06:12;30.70;99.90
14144;DHT22;7152;48.348;10.980;2023-07-29T14:08:38;30.70;99.90
14144;DHT22;7152;48.348;10.980;2023-07-29T14:11:06;30.90;99.90
14144;DHT22;7152;48.348;10.980;2023-07-29T14:13:32;30.70;99.90
14144;DHT22;7152;48.348;10.980;2023-07-29T14:16:03;30.30;99.90
14144;DHT22;7152;48.348;10.980;2023-07-29T14:18:29;29.80;99.90
14144;DHT22;7152;48.348;10.980;2023-07-29T14:20:55;29.20;99.90
14144;DHT22;7152;48.348;10.980;2023-07-29T14:23:21;28.60;99.90
14144;DHT22;7152;48.348;10.980;2023-07-29T14:25:47;28.20;99.90
14144;DHT22;7152;48.348;10.980;2023-07-29T14:28:13;28.10;99.90
14144;DHT22;7152;48.348;10.980;2023-07-29T14:30:39;28.00;99.90
14144;DHT22;7152;48.348;10.980;2023-07-29T14:33:07;27.80;99.90
14144;DHT22;7152;48.348;10.980;2023-07-29T14:35:33;27.40;99.90
14144;DHT22;7152;48.348;10.980;2023-07-29T14:37:59;27.00;99.90
14144;DHT22;7152;48.348;10.980;2023-07-29T14:40:25;26.80;99.90
14144;DHT22;7152;48.348;10.980;2023-07-29T14:42:51;26.60;99.90
14144;DHT22;7152;48.348;10.980;2023-07-29T14:45:17;26.40;99.90
14144;DHT22;7152;48.348;10.980;2023-07-29T14:47:42;26.40;99.90
14144;DHT22;7152;48.348;10.980;2023-07-29T14:50:08;26.50;99.90
14144;DHT22;7152;48.348;10.980;2023-07-29T14:52:34;26.30;99.90
14144;DHT22;7152;48.348;10.980;2023-07-29T14:55:00;26.30;99.90
14144;DHT22;7152;48.348;10.980;2023-07-29T14:57:26;26.00;99.90
14144;DHT22;7152;48.348;10.980;2023-07-29T14:59:51;25.60;99.90
14144;DHT22;7152;48.348;10.980;2023-07-29T15:02:17;24.90;99.90
14144;DHT22;7152;48.348;10.980;2023-07-29T15:04:43;24.30;99.90
14144;DHT22;7152;48.348;10.980;2023-07-29T15:07:09;23.70;99.90
14144;DHT22;7152;48.348;10.980;2023-07-29T15:09:35;22.80;99.90
14144;DHT22;7152;48.348;10.980;2023-07-29T15:12:02;21.80;99.90
14144;DHT22;7152;48.348;10.980;2023-07-29T15:14:27;21.10;99.90
14144;DHT22;7152;48.348;10.980;2023-07-29T15:16:53;20.60;99.90
14144;DHT22;7152;48.348;10.980;2023-07-29T15:19:19;20.40;99.90
14144;DHT22;7152;48.348;10.980;2023-07-29T15:21:45;20.50;99.90
14144;DHT22;7152;48.348;10.980;2023-07-29T15:24:12;20.60;99.90
14144;DHT22;7152;48.348;10.980;2023-07-29T15:26:38;20.70;99.90
14144;DHT22;7152;48.348;10.980;2023-07-29T15:29:03;20.80;99.90
14144;DHT22;7152;48.348;10.980;2023-07-29T15:31:29;20.90;99.90
14144;DHT22;7152;48.348;10.980;2023-07-29T15:33:55;20.90;99.90
14144;DHT22;7152;48.348;10.980;2023-07-29T15:36:21;20.90;99.90
14144;DHT22;7152;48.348;10.980;2023-07-29T15:38:47;20.90;99.90
14144;DHT22;7152;48.348;10.980;2023-07-29T15:41:13;20.90;99.90